sensor_id;sensor_type;location;lat;lon;timestamp;temperature;humidity
47861;HTU21D;33620;52.340;5.984;2023-03-03T00:01:28;3.15;87.38
47861;HTU21D;33620;52.340;5.984;2023-03-03T00:03:54;3.15;87.50
47861;HTU21D;33620;52.340;5.984;2023-03-03T00:06:20;3.17;87.03
47861;HTU21D;33620;52.340;5.984;2023-03-03T00:08:45;3.17;86.91
47861;HTU21D;33620;52.340;5.984;2023-03-03T00:11:10;3.15;87.05
47861;HTU21D;33620;52.340;5.984;2023-03-03T00:13:39;3.15;87.28
47861;HTU21D;33620;52.340;5.984;2023-03-03T00:16:47;3.21;87.63
47861;HTU21D;33620;52.340;5.984;2023-03-03T00:18:53;3.23;87.15
47861;HTU21D;33620;52.340;5.984;2023-03-03T00:26:38;3.29;87.15
47861;HTU21D;33620;52.340;5.984;2023-03-03T00:29:23;3.20;86.49
47861;HTU21D;33620;52.340;5.984;2023-03-03T00:31:50;3.14;86.91
47861;HTU21D;33620;52.340;5.984;2023-03-03T00:36:41;3.14;87.03
47861;HTU21D;33620;52.340;5.984;2023-03-03T00:39:12;3.14;87.10
47861;HTU21D;33620;52.340;5.984;2023-03-03T00:41:41;3.14;87.15
47861;HTU21D;33620;52.340;5.984;2023-03-03T00:46:47;3.12;87.38
47861;HTU21D;33620;52.340;5.984;2023-03-03T00:49:15;3.05;87.22
47861;HTU21D;33620;52.340;5.984;2023-03-03T00:51:44;3.04;87.40
47861;HTU21D;33620;52.340;5.984;2023-03-03T00:54:09;3.02;87.54
47861;HTU21D;33620;52.340;5.984;2023-03-03T00:56:34;2.89;87.48
47861;HTU21D;33620;52.340;5.984;2023-03-03T00:59:00;2.87;88.02
47861;HTU21D;33620;52.340;5.984;2023-03-03T01:01:25;2.89;88.31
47861;HTU21D;33620;52.340;5.984;2023-03-03T01:03:50;2.96;88.21
47861;HTU21D;33620;52.340;5.984;2023-03-03T01:06:16;2.95;87.86
47861;HTU21D;33620;52.340;5.984;2023-03-03T01:08:41;2.88;88.10
47861;HTU21D;33620;52.340;5.984;2023-03-03T01:11:14;2.86;88.10
47861;HTU21D;33620;52.340;5.984;2023-03-03T01:13:41;2.90;88.23
47861;HTU21D;33620;52.340;5.984;2023-03-03T01:16:07;2.90;88.25
47861;HTU21D;33620;52.340;5.984;2023-03-03T01:18:32;2.95;88.06
47861;HTU21D;33620;52.340;5.984;2023-03-03T01:20:58;2.99;88.07
47861;HTU21D;33620;52.340;5.984;2023-03-03T01:23:24;3.00;88.00
47861;HTU21D;33620;52.340;5.984;2023-03-03T01:25:49;2.97;87.83
47861;HTU21D;33620;52.340;5.984;2023-03-03T01:28:14;2.96;87.94
47861;HTU21D;33620;52.340;5.984;2023-03-03T01:30:40;2.99;88.02
47861;HTU21D;33620;52.340;5.984;2023-03-03T01:33:05;3.01;87.99
47861;HTU21D;33620;52.340;5.984;2023-03-03T01:35:30;3.00;87.96
47861;HTU21D;33620;52.340;5.984;2023-03-03T01:37:56;3.02;88.01
47861;HTU21D;33620;52.340;5.984;2023-03-03T01:40:23;3.02;88.25
47861;HTU21D;33620;52.340;5.984;2023-03-03T01:42:48;3.09;88.31
47861;HTU21D;33620;52.340;5.984;2023-03-03T01:45:22;3.13;87.83
47861;HTU21D;33620;52.340;5.984;2023-03-03T01:47:50;3.12;87.83
47861;HTU21D;33620;52.340;5.984;2023-03-03T01:50:27;3.16;87.75
47861;HTU21D;33620;52.340;5.984;2023-03-03T01:52:55;3.14;87.31
47861;HTU21D;33620;52.340;5.984;2023-03-03T01:55:22;3.10;87.44
47861;HTU21D;33620;52.340;5.984;2023-03-03T01:57:54;3.09;87.68
47861;HTU21D;33620;52.340;5.984;2023-03-03T02:00:21;3.10;87.73
47861;HTU21D;33620;52.340;5.984;2023-03-03T02:02:47;3.13;87.70
47861;HTU21D;33620;52.340;5.984;2023-03-03T02:05:12;3.15;87.57
47861;HTU21D;33620;52.340;5.984;2023-03-03T02:07:38;3.19;87.52
47861;HTU21D;33620;52.340;5.984;2023-03-03T02:10:05;3.15;87.03
47861;HTU21D;33620;52.340;5.984;2023-03-03T02:12:41;3.16;87.12
47861;HTU21D;33620;52.340;5.984;2023-03-03T02:15:49;3.15;86.99
47861;HTU21D;33620;52.340;5.984;2023-03-03T02:18:03;3.10;87.28
47861;HTU21D;33620;52.340;5.984;2023-03-03T02:20:31;3.12;87.25
47861;HTU21D;33620;52.340;5.984;2023-03-03T02:23:22;3.08;86.76
47861;HTU21D;33620;52.340;5.984;2023-03-03T02:28:20;3.04;87.44
47861;HTU21D;33620;52.340;5.984;2023-03-03T02:30:45;3.09;87.37
47861;HTU21D;33620;52.340;5.984;2023-03-03T02:33:11;3.12;87.35
47861;HTU21D;33620;52.340;5.984;2023-03-03T02:35:37;3.15;87.09
47861;HTU21D;33620;52.340;5.984;2023-03-03T02:40:32;3.08;86.80
47861;HTU21D;33620;52.340;5.984;2023-03-03T02:42:58;3.05;86.88
47861;HTU21D;33620;52.340;5.984;2023-03-03T02:45:25;3.00;86.56
47861;HTU21D;33620;52.340;5.984;2023-03-03T02:47:50;2.96;86.56
47861;HTU21D;33620;52.340;5.984;2023-03-03T02:50:16;2.93;86.61
47861;HTU21D;33620;52.340;5.984;2023-03-03T02:52:41;2.91;86.82
47861;HTU21D;33620;52.340;5.984;2023-03-03T02:55:06;2.88;86.58
47861;HTU21D;33620;52.340;5.984;2023-03-03T02:57:32;2.87;86.51
47861;HTU21D;33620;52.340;5.984;2023-03-03T02:59:57;2.79;86.51
47861;HTU21D;33620;52.340;5.984;2023-03-03T03:02:22;2.78;86.93
47861;HTU21D;33620;52.340;5.984;2023-03-03T03:04:48;2.82;87.13
47861;HTU21D;33620;52.340;5.984;2023-03-03T03:07:13;2.87;87.12
47861;HTU21D;33620;52.340;5.984;2023-03-03T03:09:39;2.95;86.93
47861;HTU21D;33620;52.340;5.984;2023-03-03T03:12:04;2.96;86.60
47861;HTU21D;33620;52.340;5.984;2023-03-03T03:14:29;2.93;86.45
47861;HTU21D;33620;52.340;5.984;2023-03-03T03:16:55;2.94;86.77
47861;HTU21D;33620;52.340;5.984;2023-03-03T03:19:20;3.00;86.78
47861;HTU21D;33620;52.340;5.984;2023-03-03T03:21:45;3.04;86.74
47861;HTU21D;33620;52.340;5.984;2023-03-03T03:24:11;3.09;86.67
47861;HTU21D;33620;52.340;5.984;2023-03-03T03:26:36;3.13;86.53
47861;HTU21D;33620;52.340;5.984;2023-03-03T03:29:01;3.14;86.21
47861;HTU21D;33620;52.340;5.984;2023-03-03T03:31:26;3.16;86.30
47861;HTU21D;33620;52.340;5.984;2023-03-03T03:33:52;3.15;86.15
47861;HTU21D;33620;52.340;5.984;2023-03-03T03:36:17;3.16;86.10
47861;HTU21D;33620;52.340;5.984;2023-03-03T03:38:42;3.15;86.06
47861;HTU21D;33620;52.340;5.984;2023-03-03T03:41:08;3.14;86.17
47861;HTU21D;33620;52.340;5.984;2023-03-03T03:43:33;3.16;86.19
47861;HTU21D;33620;52.340;5.984;2023-03-03T03:45:59;3.13;85.94
47861;HTU21D;33620;52.340;5.984;2023-03-03T03:48:24;3.09;86.39
47861;HTU21D;33620;52.340;5.984;2023-03-03T03:50:50;3.10;86.43
47861;HTU21D;33620;52.340;5.984;2023-03-03T03:53:15;3.09;86.54
47861;HTU21D;33620;52.340;5.984;2023-03-03T03:55:41;3.03;86.60
47861;HTU21D;33620;52.340;5.984;2023-03-03T03:58:06;3.04;86.93
47861;HTU21D;33620;52.340;5.984;2023-03-03T04:00:32;3.08;87.02
47861;HTU21D;33620;52.340;5.984;2023-03-03T04:02:57;3.10;87.05
47861;HTU21D;33620;52.340;5.984;2023-03-03T04:05:22;3.09;86.86
47861;HTU21D;33620;52.340;5.984;2023-03-03T04:07:48;3.09;87.04
47861;HTU21D;33620;52.340;5.984;2023-03-03T04:10:13;3.09;86.84
47861;HTU21D;33620;52.340;5.984;2023-03-03T04:12:38;3.06;87.06
47861;HTU21D;33620;52.340;5.984;2023-03-03T04:17:29;2.96;87.40
47861;HTU21D;33620;52.340;5.984;2023-03-03T04:19:55;2.99;87.79
47861;HTU21D;33620;52.340;5.984;2023-03-03T04:22:20;2.98;87.79
47861;HTU21D;33620;52.340;5.984;2023-03-03T04:24:45;2.96;87.84
47861;HTU21D;33620;52.340;5.984;2023-03-03T04:27:12;2.97;87.80
47861;HTU21D;33620;52.340;5.984;2023-03-03T04:29:39;2.94;87.80
47861;HTU21D;33620;52.340;5.984;2023-03-03T04:32:05;2.89;88.18
47861;HTU21D;33620;52.340;5.984;2023-03-03T04:34:30;2.91;88.44
47861;HTU21D;33620;52.340;5.984;2023-03-03T04:36:55;2.96;88.66
47861;HTU21D;33620;52.340;5.984;2023-03-03T04:39:21;2.95;88.58
47861;HTU21D;33620;52.340;5.984;2023-03-03T04:41:46;2.93;88.39
47861;HTU21D;33620;52.340;5.984;2023-03-03T04:44:11;2.90;88.61
47861;HTU21D;33620;52.340;5.984;2023-03-03T04:46:37;2.93;88.89
47861;HTU21D;33620;52.340;5.984;2023-03-03T04:49:02;2.94;88.75
47861;HTU21D;33620;52.340;5.984;2023-03-03T04:51:28;2.95;88.75
47861;HTU21D;33620;52.340;5.984;2023-03-03T04:53:53;2.96;88.67
47861;HTU21D;33620;52.340;5.984;2023-03-03T04:56:19;2.97;88.70
47861;HTU21D;33620;52.340;5.984;2023-03-03T04:58:44;2.91;88.48
47861;HTU21D;33620;52.340;5.984;2023-03-03T05:01:11;2.88;88.76
47861;HTU21D;33620;52.340;5.984;2023-03-03T05:03:37;2.91;88.99
47861;HTU21D;33620;52.340;5.984;2023-03-03T05:06:02;2.89;88.93
47861;HTU21D;33620;52.340;5.984;2023-03-03T05:08:27;2.89;89.12
47861;HTU21D;33620;52.340;5.984;2023-03-03T05:10:53;2.91;89.34
47861;HTU21D;33620;52.340;5.984;2023-03-03T05:13:19;2.97;89.34
47861;HTU21D;33620;52.340;5.984;2023-03-03T05:15:51;2.99;89.20
47861;HTU21D;33620;52.340;5.984;2023-03-03T05:18:18;2.99;89.28
47861;HTU21D;33620;52.340;5.984;2023-03-03T05:20:43;3.03;89.34
47861;HTU21D;33620;52.340;5.984;2023-03-03T05:23:08;3.08;89.38
47861;HTU21D;33620;52.340;5.984;2023-03-03T05:25:34;3.11;89.31
47861;HTU21D;33620;52.340;5.984;2023-03-03T05:27:59;3.13;89.27
47861;HTU21D;33620;52.340;5.984;2023-03-03T05:30:24;3.15;89.18
47861;HTU21D;33620;52.340;5.984;2023-03-03T05:32:49;3.13;89.07
47861;HTU21D;33620;52.340;5.984;2023-03-03T05:35:15;3.15;89.31
47861;HTU21D;33620;52.340;5.984;2023-03-03T05:37:40;3.16;89.04
47861;HTU21D;33620;52.340;5.984;2023-03-03T05:40:11;3.14;89.18
47861;HTU21D;33620;52.340;5.984;2023-03-03T05:42:36;3.13;89.31
47861;HTU21D;33620;52.340;5.984;2023-03-03T05:45:02;3.06;89.26
47861;HTU21D;33620;52.340;5.984;2023-03-03T05:47:27;3.06;89.73
47861;HTU21D;33620;52.340;5.984;2023-03-03T05:49:53;3.10;89.99
47861;HTU21D;33620;52.340;5.984;2023-03-03T05:52:18;3.12;90.07
47861;HTU21D;33620;52.340;5.984;2023-03-03T05:54:43;3.13;89.84
47861;HTU21D;33620;52.340;5.984;2023-03-03T05:57:09;3.10;90.03
47861;HTU21D;33620;52.340;5.984;2023-03-03T05:59:34;3.13;90.18
47861;HTU21D;33620;52.340;5.984;2023-03-03T06:01:59;3.14;90.05
47861;HTU21D;33620;52.340;5.984;2023-03-03T06:04:25;3.14;90.29
47861;HTU21D;33620;52.340;5.984;2023-03-03T06:06:50;3.17;90.41
47861;HTU21D;33620;52.340;5.984;2023-03-03T06:09:15;3.16;90.08
47861;HTU21D;33620;52.340;5.984;2023-03-03T06:11:43;3.17;90.43
47861;HTU21D;33620;52.340;5.984;2023-03-03T06:14:08;3.18;90.35
47861;HTU21D;33620;52.340;5.984;2023-03-03T06:16:33;3.19;90.44
47861;HTU21D;33620;52.340;5.984;2023-03-03T06:18:59;3.15;90.36
47861;HTU21D;33620;52.340;5.984;2023-03-03T06:21:25;3.18;90.78
47861;HTU21D;33620;52.340;5.984;2023-03-03T06:23:50;3.20;90.77
47861;HTU21D;33620;52.340;5.984;2023-03-03T06:26:16;3.21;90.68
47861;HTU21D;33620;52.340;5.984;2023-03-03T06:28:41;3.21;90.66
47861;HTU21D;33620;52.340;5.984;2023-03-03T06:31:06;3.23;90.84
47861;HTU21D;33620;52.340;5.984;2023-03-03T06:33:32;3.23;90.79
47861;HTU21D;33620;52.340;5.984;2023-03-03T06:35:57;3.23;90.80
47861;HTU21D;33620;52.340;5.984;2023-03-03T06:38:23;3.21;91.01
47861;HTU21D;33620;52.340;5.984;2023-03-03T06:40:49;3.21;91.05
47861;HTU21D;33620;52.340;5.984;2023-03-03T06:43:14;3.25;91.22
47861;HTU21D;33620;52.340;5.984;2023-03-03T06:45:39;3.27;91.19
47861;HTU21D;33620;52.340;5.984;2023-03-03T06:48:05;3.29;91.27
47861;HTU21D;33620;52.340;5.984;2023-03-03T06:50:30;3.33;91.36
47861;HTU21D;33620;52.340;5.984;2023-03-03T06:53:01;3.36;91.22
47861;HTU21D;33620;52.340;5.984;2023-03-03T06:55:26;3.35;91.11
47861;HTU21D;33620;52.340;5.984;2023-03-03T06:57:52;3.34;91.08
47861;HTU21D;33620;52.340;5.984;2023-03-03T07:00:23;3.34;91.21
47861;HTU21D;33620;52.340;5.984;2023-03-03T07:03:10;3.36;91.24
47861;HTU21D;33620;52.340;5.984;2023-03-03T07:05:36;3.31;91.11
47861;HTU21D;33620;52.340;5.984;2023-03-03T07:08:02;3.28;91.20
47861;HTU21D;33620;52.340;5.984;2023-03-03T07:10:30;3.25;91.54
47861;HTU21D;33620;52.340;5.984;2023-03-03T07:12:57;3.26;91.63
47861;HTU21D;33620;52.340;5.984;2023-03-03T07:15:34;3.27;91.96
47861;HTU21D;33620;52.340;5.984;2023-03-03T07:17:59;3.28;92.09
47861;HTU21D;33620;52.340;5.984;2023-03-03T07:20:34;3.31;92.16
47861;HTU21D;33620;52.340;5.984;2023-03-03T07:23:17;3.34;92.20
47861;HTU21D;33620;52.340;5.984;2023-03-03T07:25:44;3.38;92.11
47861;HTU21D;33620;52.340;5.984;2023-03-03T07:28:14;3.40;92.22
47861;HTU21D;33620;52.340;5.984;2023-03-03T07:30:42;3.44;92.16
47861;HTU21D;33620;52.340;5.984;2023-03-03T07:33:13;3.42;91.74
47861;HTU21D;33620;52.340;5.984;2023-03-03T07:35:43;3.43;91.85
47861;HTU21D;33620;52.340;5.984;2023-03-03T07:40:41;3.43;91.98
47861;HTU21D;33620;52.340;5.984;2023-03-03T07:43:20;3.45;92.07
47861;HTU21D;33620;52.340;5.984;2023-03-03T07:45:48;3.49;92.15
47861;HTU21D;33620;52.340;5.984;2023-03-03T07:48:24;3.54;92.16
47861;HTU21D;33620;52.340;5.984;2023-03-03T07:50:50;3.53;91.89
47861;HTU21D;33620;52.340;5.984;2023-03-03T07:53:28;3.57;92.15
47861;HTU21D;33620;52.340;5.984;2023-03-03T07:55:58;3.59;91.97
47861;HTU21D;33620;52.340;5.984;2023-03-03T07:58:32;3.62;92.00
47861;HTU21D;33620;52.340;5.984;2023-03-03T08:03:43;3.64;91.88
47861;HTU21D;33620;52.340;5.984;2023-03-03T08:06:56;3.67;91.76
47861;HTU21D;33620;52.340;5.984;2023-03-03T08:11:34;3.69;91.57
47861;HTU21D;33620;52.340;5.984;2023-03-03T08:13:59;3.67;91.56
47861;HTU21D;33620;52.340;5.984;2023-03-03T08:19:01;3.71;91.53
47861;HTU21D;33620;52.340;5.984;2023-03-03T08:21:26;3.72;91.71
47861;HTU21D;33620;52.340;5.984;2023-03-03T08:23:52;3.75;91.73
47861;HTU21D;33620;52.340;5.984;2023-03-03T08:26:18;3.80;92.02
47861;HTU21D;33620;52.340;5.984;2023-03-03T08:28:43;3.86;92.01
47861;HTU21D;33620;52.340;5.984;2023-03-03T08:31:09;3.89;91.76
47861;HTU21D;33620;52.340;5.984;2023-03-03T08:33:34;3.94;91.82
47861;HTU21D;33620;52.340;5.984;2023-03-03T08:35:59;3.99;91.77
47861;HTU21D;33620;52.340;5.984;2023-03-03T08:38:25;4.04;91.66
47861;HTU21D;33620;52.340;5.984;2023-03-03T08:40:50;4.09;91.49
47861;HTU21D;33620;52.340;5.984;2023-03-03T08:43:17;4.12;91.41
47861;HTU21D;33620;52.340;5.984;2023-03-03T08:45:46;4.15;91.24
47861;HTU21D;33620;52.340;5.984;2023-03-03T08:48:12;4.17;91.29
47861;HTU21D;33620;52.340;5.984;2023-03-03T08:50:37;4.22;91.16
47861;HTU21D;33620;52.340;5.984;2023-03-03T08:53:03;4.26;91.08
47861;HTU21D;33620;52.340;5.984;2023-03-03T08:55:28;4.28;90.90
47861;HTU21D;33620;52.340;5.984;2023-03-03T08:57:54;4.31;90.98
47861;HTU21D;33620;52.340;5.984;2023-03-03T09:00:19;4.30;90.61
47861;HTU21D;33620;52.340;5.984;2023-03-03T09:02:45;4.32;90.58
47861;HTU21D;33620;52.340;5.984;2023-03-03T09:05:10;4.31;90.30
47861;HTU21D;33620;52.340;5.984;2023-03-03T09:07:36;4.34;90.57
47861;HTU21D;33620;52.340;5.984;2023-03-03T09:10:02;4.38;90.61
47861;HTU21D;33620;52.340;5.984;2023-03-03T09:12:28;4.42;90.36
47861;HTU21D;33620;52.340;5.984;2023-03-03T09:14:55;4.41;89.92
47861;HTU21D;33620;52.340;5.984;2023-03-03T09:17:31;4.44;90.08
47861;HTU21D;33620;52.340;5.984;2023-03-03T09:20:03;4.52;90.28
47861;HTU21D;33620;52.340;5.984;2023-03-03T09:22:35;4.64;90.23
47861;HTU21D;33620;52.340;5.984;2023-03-03T09:25:02;4.72;89.94
47861;HTU21D;33620;52.340;5.984;2023-03-03T09:27:38;4.80;89.88
47861;HTU21D;33620;52.340;5.984;2023-03-03T09:30:15;4.79;88.97
47861;HTU21D;33620;52.340;5.984;2023-03-03T09:32:51;4.84;88.87
47861;HTU21D;33620;52.340;5.984;2023-03-03T09:37:51;4.95;88.32
47861;HTU21D;33620;52.340;5.984;2023-03-03T09:40:32;4.96;88.07
47861;HTU21D;33620;52.340;5.984;2023-03-03T09:43:05;5.00;88.06
47861;HTU21D;33620;52.340;5.984;2023-03-03T09:45:38;5.02;87.73
47861;HTU21D;33620;52.340;5.984;2023-03-03T09:53:32;5.02;87.50
47861;HTU21D;33620;52.340;5.984;2023-03-03T09:58:28;5.11;87.22
47861;HTU21D;33620;52.340;5.984;2023-03-03T10:06:14;5.19;87.12
47861;HTU21D;33620;52.340;5.984;2023-03-03T10:19:07;5.40;85.71
47861;HTU21D;33620;52.340;5.984;2023-03-03T10:21:35;5.48;86.19
47861;HTU21D;33620;52.340;5.984;2023-03-03T10:34:21;5.50;85.13
47861;HTU21D;33620;52.340;5.984;2023-03-03T10:55:08;6.19;83.62
47861;HTU21D;33620;52.340;5.984;2023-03-03T11:00:26;6.44;82.59
47861;HTU21D;33620;52.340;5.984;2023-03-03T11:05:28;6.61;80.97
47861;HTU21D;33620;52.340;5.984;2023-03-03T11:08:00;6.69;80.84
47861;HTU21D;33620;52.340;5.984;2023-03-03T11:11:31;6.73;78.01
47861;HTU21D;33620;52.340;5.984;2023-03-03T11:21:22;7.07;75.76
47861;HTU21D;33620;52.340;5.984;2023-03-03T11:34:43;7.12;75.53
47861;HTU21D;33620;52.340;5.984;2023-03-03T11:37:13;7.04;74.89
47861;HTU21D;33620;52.340;5.984;2023-03-03T11:39:41;6.98;74.43
47861;HTU21D;33620;52.340;5.984;2023-03-03T11:42:12;6.96;74.89
47861;HTU21D;33620;52.340;5.984;2023-03-03T11:44:43;6.96;75.19
47861;HTU21D;33620;52.340;5.984;2023-03-03T11:52:39;6.98;74.81
47861;HTU21D;33620;52.340;5.984;2023-03-03T11:55:10;6.94;74.27
47861;HTU21D;33620;52.340;5.984;2023-03-03T12:00:41;6.94;74.02
47861;HTU21D;33620;52.340;5.984;2023-03-03T12:08:19;7.22;72.06
47861;HTU21D;33620;52.340;5.984;2023-03-03T12:15:48;7.33;73.20
47861;HTU21D;33620;52.340;5.984;2023-03-03T12:26:19;7.28;71.06
47861;HTU21D;33620;52.340;5.984;2023-03-03T12:28:51;7.40;71.70
47861;HTU21D;33620;52.340;5.984;2023-03-03T12:38:53;7.69;68.78
47861;HTU21D;33620;52.340;5.984;2023-03-03T12:41:30;7.71;69.34
47861;HTU21D;33620;52.340;5.984;2023-03-03T12:44:01;7.74;69.54
47861;HTU21D;33620;52.340;5.984;2023-03-03T12:46:43;7.77;69.56
47861;HTU21D;33620;52.340;5.984;2023-03-03T12:49:09;7.79;69.58
47861;HTU21D;33620;52.340;5.984;2023-03-03T12:51:36;7.77;68.55
47861;HTU21D;33620;52.340;5.984;2023-03-03T12:54:10;7.78;68.13
47861;HTU21D;33620;52.340;5.984;2023-03-03T12:59:55;7.75;67.20
47861;HTU21D;33620;52.340;5.984;2023-03-03T13:02:33;7.75;67.44
47861;HTU21D;33620;52.340;5.984;2023-03-03T13:05:18;7.76;68.26
47861;HTU21D;33620;52.340;5.984;2023-03-03T13:10:38;7.73;68.47
47861;HTU21D;33620;52.340;5.984;2023-03-03T13:15:44;7.67;69.49
47861;HTU21D;33620;52.340;5.984;2023-03-03T13:18:18;7.65;69.68
47861;HTU21D;33620;52.340;5.984;2023-03-03T13:20:50;7.65;69.56
47861;HTU21D;33620;52.340;5.984;2023-03-03T13:23:35;7.67;69.84
47861;HTU21D;33620;52.340;5.984;2023-03-03T13:28:36;7.70;68.12
47861;HTU21D;33620;52.340;5.984;2023-03-03T13:31:04;7.72;67.57
47861;HTU21D;33620;52.340;5.984;2023-03-03T13:33:35;7.67;67.05
47861;HTU21D;33620;52.340;5.984;2023-03-03T13:36:10;7.67;67.84
47861;HTU21D;33620;52.340;5.984;2023-03-03T13:38:40;7.69;67.75
47861;HTU21D;33620;52.340;5.984;2023-03-03T13:41:20;7.69;67.58
47861;HTU21D;33620;52.340;5.984;2023-03-03T13:43:48;7.72;67.70
47861;HTU21D;33620;52.340;5.984;2023-03-03T13:49:06;7.67;67.17
47861;HTU21D;33620;52.340;5.984;2023-03-03T13:51:42;7.68;67.64
47861;HTU21D;33620;52.340;5.984;2023-03-03T13:54:17;7.70;67.93
47861;HTU21D;33620;52.340;5.984;2023-03-03T13:56:53;7.74;68.49
47861;HTU21D;33620;52.340;5.984;2023-03-03T14:02:19;7.75;68.01
47861;HTU21D;33620;52.340;5.984;2023-03-03T14:05:00;7.77;68.23
47861;HTU21D;33620;52.340;5.984;2023-03-03T14:09:54;7.72;68.30
47861;HTU21D;33620;52.340;5.984;2023-03-03T14:14:54;7.68;69.18
47861;HTU21D;33620;52.340;5.984;2023-03-03T14:17:27;7.68;69.74
47861;HTU21D;33620;52.340;5.984;2023-03-03T14:19:58;7.69;70.56
47861;HTU21D;33620;52.340;5.984;2023-03-03T14:22:29;7.72;70.96
47861;HTU21D;33620;52.340;5.984;2023-03-03T14:25:02;7.68;71.34
47861;HTU21D;33620;52.340;5.984;2023-03-03T14:27:33;7.61;71.42
47861;HTU21D;33620;52.340;5.984;2023-03-03T14:29:58;7.61;71.80
47861;HTU21D;33620;52.340;5.984;2023-03-03T14:32:24;7.58;71.20
47861;HTU21D;33620;52.340;5.984;2023-03-03T14:34:57;7.55;70.90
47861;HTU21D;33620;52.340;5.984;2023-03-03T14:37:27;7.57;70.77
47861;HTU21D;33620;52.340;5.984;2023-03-03T14:40:29;7.56;70.42
47861;HTU21D;33620;52.340;5.984;2023-03-03T14:47:57;7.57;69.42
47861;HTU21D;33620;52.340;5.984;2023-03-03T14:50:29;7.58;69.31
47861;HTU21D;33620;52.340;5.984;2023-03-03T14:55:39;7.68;65.99
47861;HTU21D;33620;52.340;5.984;2023-03-03T14:58:24;7.70;65.69
47861;HTU21D;33620;52.340;5.984;2023-03-03T15:00:59;7.75;65.98
47861;HTU21D;33620;52.340;5.984;2023-03-03T15:03:30;7.76;64.56
47861;HTU21D;33620;52.340;5.984;2023-03-03T15:05:56;7.78;64.79
47861;HTU21D;33620;52.340;5.984;2023-03-03T15:08:34;7.76;64.63
47861;HTU21D;33620;52.340;5.984;2023-03-03T15:13:44;7.77;65.01
47861;HTU21D;33620;52.340;5.984;2023-03-03T15:16:11;7.77;64.75
47861;HTU21D;33620;52.340;5.984;2023-03-03T15:21:25;7.86;65.01
47861;HTU21D;33620;52.340;5.984;2023-03-03T15:26:38;8.15;64.62
47861;HTU21D;33620;52.340;5.984;2023-03-03T15:29:15;8.11;63.76
47861;HTU21D;33620;52.340;5.984;2023-03-03T15:34:29;8.04;64.80
47861;HTU21D;33620;52.340;5.984;2023-03-03T15:37:06;8.03;65.43
47861;HTU21D;33620;52.340;5.984;2023-03-03T15:42:25;7.93;65.78
47861;HTU21D;33620;52.340;5.984;2023-03-03T15:44:55;7.84;65.79
47861;HTU21D;33620;52.340;5.984;2023-03-03T15:47:29;7.72;65.89
47861;HTU21D;33620;52.340;5.984;2023-03-03T15:52:44;7.67;66.36
47861;HTU21D;33620;52.340;5.984;2023-03-03T15:58:06;7.59;65.99
47861;HTU21D;33620;52.340;5.984;2023-03-03T16:03:15;7.45;65.77
47861;HTU21D;33620;52.340;5.984;2023-03-03T16:05:43;7.40;66.04
47861;HTU21D;33620;52.340;5.984;2023-03-03T16:08:15;7.39;66.03
47861;HTU21D;33620;52.340;5.984;2023-03-03T16:15:54;7.26;66.44
47861;HTU21D;33620;52.340;5.984;2023-03-03T16:18:26;7.24;66.65
47861;HTU21D;33620;52.340;5.984;2023-03-03T16:23:23;7.25;67.48
47861;HTU21D;33620;52.340;5.984;2023-03-03T16:28:34;7.23;67.73
47861;HTU21D;33620;52.340;5.984;2023-03-03T16:33:40;7.20;67.45
47861;HTU21D;33620;52.340;5.984;2023-03-03T16:38:35;7.18;67.59
47861;HTU21D;33620;52.340;5.984;2023-03-03T16:41:03;7.19;67.68
47861;HTU21D;33620;52.340;5.984;2023-03-03T16:43:52;7.17;67.36
47861;HTU21D;33620;52.340;5.984;2023-03-03T16:46:21;7.12;67.39
47861;HTU21D;33620;52.340;5.984;2023-03-03T16:48:53;7.11;67.10
47861;HTU21D;33620;52.340;5.984;2023-03-03T16:51:24;7.11;67.59
47861;HTU21D;33620;52.340;5.984;2023-03-03T16:56:35;7.00;67.20
47861;HTU21D;33620;52.340;5.984;2023-03-03T16:59:06;7.00;67.46
47861;HTU21D;33620;52.340;5.984;2023-03-03T17:01:49;6.99;67.51
47861;HTU21D;33620;52.340;5.984;2023-03-03T17:06:57;6.99;67.76
47861;HTU21D;33620;52.340;5.984;2023-03-03T17:16:57;6.95;68.52
47861;HTU21D;33620;52.340;5.984;2023-03-03T17:35:27;6.83;69.74
47861;HTU21D;33620;52.340;5.984;2023-03-03T17:43:10;6.87;70.07
47861;HTU21D;33620;52.340;5.984;2023-03-03T17:45:38;6.85;69.91
47861;HTU21D;33620;52.340;5.984;2023-03-03T17:53:19;6.80;70.18
47861;HTU21D;33620;52.340;5.984;2023-03-03T17:58:21;6.69;71.07
47861;HTU21D;33620;52.340;5.984;2023-03-03T18:01:00;6.66;71.53
47861;HTU21D;33620;52.340;5.984;2023-03-03T18:05:59;6.71;71.62
47861;HTU21D;33620;52.340;5.984;2023-03-03T18:21:09;6.67;72.32
47861;HTU21D;33620;52.340;5.984;2023-03-03T18:23:39;6.64;72.63
47861;HTU21D;33620;52.340;5.984;2023-03-03T18:28:51;6.63;72.74
47861;HTU21D;33620;52.340;5.984;2023-03-03T18:31:29;6.63;72.93
47861;HTU21D;33620;52.340;5.984;2023-03-03T18:33:59;6.61;72.90
47861;HTU21D;33620;52.340;5.984;2023-03-03T18:38:49;6.61;72.85
47861;HTU21D;33620;52.340;5.984;2023-03-03T18:41:25;6.63;72.93
47861;HTU21D;33620;52.340;5.984;2023-03-03T18:48:46;6.70;73.09
47861;HTU21D;33620;52.340;5.984;2023-03-03T18:51:17;6.66;73.15
47861;HTU21D;33620;52.340;5.984;2023-03-03T18:54:00;6.69;73.38
47861;HTU21D;33620;52.340;5.984;2023-03-03T19:01:54;6.69;72.87
47861;HTU21D;33620;52.340;5.984;2023-03-03T19:04:32;6.67;72.82
47861;HTU21D;33620;52.340;5.984;2023-03-03T19:12:16;6.68;72.67
47861;HTU21D;33620;52.340;5.984;2023-03-03T19:14:46;6.69;72.79
47861;HTU21D;33620;52.340;5.984;2023-03-03T19:22:44;6.74;72.67
47861;HTU21D;33620;52.340;5.984;2023-03-03T19:40:26;6.79;73.05
47861;HTU21D;33620;52.340;5.984;2023-03-03T19:43:31;6.78;73.04
47861;HTU21D;33620;52.340;5.984;2023-03-03T19:46:02;6.75;73.15
47861;HTU21D;33620;52.340;5.984;2023-03-03T19:48:49;6.75;73.04
47861;HTU21D;33620;52.340;5.984;2023-03-03T19:53:53;6.76;73.25
47861;HTU21D;33620;52.340;5.984;2023-03-03T19:56:40;6.76;73.26
47861;HTU21D;33620;52.340;5.984;2023-03-03T20:06:44;6.78;73.45
47861;HTU21D;33620;52.340;5.984;2023-03-03T20:09:16;6.78;73.43
47861;HTU21D;33620;52.340;5.984;2023-03-03T20:14:21;6.74;73.78
47861;HTU21D;33620;52.340;5.984;2023-03-03T20:16:47;6.71;73.67
47861;HTU21D;33620;52.340;5.984;2023-03-03T20:22:03;6.69;74.04
47861;HTU21D;33620;52.340;5.984;2023-03-03T20:42:40;6.74;74.60
47861;HTU21D;33620;52.340;5.984;2023-03-03T20:47:57;6.69;74.99
47861;HTU21D;33620;52.340;5.984;2023-03-03T20:50:35;6.69;74.88
47861;HTU21D;33620;52.340;5.984;2023-03-03T20:58:26;6.70;74.90
47861;HTU21D;33620;52.340;5.984;2023-03-03T21:01:06;6.72;75.02
47861;HTU21D;33620;52.340;5.984;2023-03-03T21:03:36;6.72;75.00
47861;HTU21D;33620;52.340;5.984;2023-03-03T21:06:06;6.71;75.01
47861;HTU21D;33620;52.340;5.984;2023-03-03T21:11:07;6.68;74.99
47861;HTU21D;33620;52.340;5.984;2023-03-03T21:21:25;6.63;74.67
47861;HTU21D;33620;52.340;5.984;2023-03-03T21:23:51;6.60;74.38
47861;HTU21D;33620;52.340;5.984;2023-03-03T21:29:00;6.59;73.99
47861;HTU21D;33620;52.340;5.984;2023-03-03T21:31:25;6.59;74.16
47861;HTU21D;33620;52.340;5.984;2023-03-03T21:33:52;6.59;74.03
47861;HTU21D;33620;52.340;5.984;2023-03-03T21:38:47;6.64;74.06
47861;HTU21D;33620;52.340;5.984;2023-03-03T21:41:13;6.65;74.22
47861;HTU21D;33620;52.340;5.984;2023-03-03T21:43:42;6.65;74.40
47861;HTU21D;33620;52.340;5.984;2023-03-03T21:46:08;6.63;74.84